sensor_id;sensor_type;location;lat;lon;timestamp;pressure;altitude;pressure_sealevel;temperature;humidity
6599;BME280;3335;43.198;27.918;2022-09-09T00:02:20;152428.75;;;20.76;100.00
6599;BME280;3335;43.198;27.918;2022-09-09T00:04:55;152461.44;;;20.89;100.00
6599;BME280;3335;43.198;27.918;2022-09-09T00:07:32;152501.69;;;21.06;100.00
6599;BME280;3335;43.198;27.918;2022-09-09T00:10:13;152519.34;;;21.13;100.00
6599;BME280;3335;43.198;27.918;2022-09-09T00:12:50;152520.66;;;21.13;100.00
6599;BME280;3335;43.198;27.918;2022-09-09T00:15:23;152529.44;;;21.17;100.00
6599;BME280;3335;43.198;27.918;2022-09-09T00:17:58;152549.56;;;21.25;100.00
6599;BME280;3335;43.198;27.918;2022-09-09T00:20:32;152536.97;;;21.20;100.00
6599;BME280;3335;43.198;27.918;2022-09-09T00:23:05;152489.09;;;21.01;100.00
6599;BME280;3335;43.198;27.918;2022-09-09T00:25:44;152494.16;;;21.03;100.00
6599;BME280;3335;43.198;27.918;2022-09-09T00:28:18;152486.63;;;21.00;100.00
6599;BME280;3335;43.198;27.918;2022-09-09T00:30:46;152521.91;;;21.14;100.00
6599;BME280;3335;43.198;27.918;2022-09-09T00:33:17;152452.66;;;20.86;100.00
6599;BME280;3335;43.198;27.918;2022-09-09T00:35:49;152486.63;;;21.00;100.00
6599;BME280;3335;43.198;27.918;2022-09-09T00:38:18;152448.88;;;20.84;100.00
6599;BME280;3335;43.198;27.918;2022-09-09T00:40:50;152509.28;;;21.09;100.00
6599;BME280;3335;43.198;27.918;2022-09-09T00:43:27;152466.47;;;20.91;100.00
6599;BME280;3335;43.198;27.918;2022-09-09T00:46:09;152510.53;;;21.09;100.00
6599;BME280;3335;43.198;27.918;2022-09-09T00:48:50;152504.22;;;21.07;100.00
6599;BME280;3335;43.198;27.918;2022-09-09T00:51:28;152451.41;;;20.85;100.00
6599;BME280;3335;43.198;27.918;2022-09-09T00:54:20;152426.22;;;20.75;100.00
6599;BME280;3335;43.198;27.918;2022-09-09T00:56:59;152373.38;;;20.54;100.00
6599;BME280;3335;43.198;27.918;2022-09-09T00:59:38;152197.25;;;19.83;100.00
6599;BME280;3335;43.198;27.918;2022-09-09T01:02:14;152370.84;;;20.53;100.00
6599;BME280;3335;43.198;27.918;2022-09-09T01:04:46;152378.41;;;20.56;100.00
6599;BME280;3335;43.198;27.918;2022-09-09T01:07:18;152350.72;;;20.45;100.00
6599;BME280;3335;43.198;27.918;2022-09-09T01:09:52;152335.63;;;20.39;100.00
6599;BME280;3335;43.198;27.918;2022-09-09T01:12:26;152316.78;;;20.31;100.00
6599;BME280;3335;43.198;27.918;2022-09-09T01:15:01;152312.94;;;20.30;100.00
6599;BME280;3335;43.198;27.918;2022-09-09T01:17:32;152300.34;;;20.25;100.00
6599;BME280;3335;43.198;27.918;2022-09-09T01:20:07;152292.81;;;20.22;100.00
6599;BME280;3335;43.198;27.918;2022-09-09T01:22:44;152272.72;;;20.14;100.00
6599;BME280;3335;43.198;27.918;2022-09-09T01:25:22;152231.19;;;19.97;100.00
6599;BME280;3335;43.198;27.918;2022-09-09T01:27:57;152179.66;;;19.76;100.00
6599;BME280;3335;43.198;27.918;2022-09-09T01:30:26;152177.16;;;19.75;100.00
6599;BME280;3335;43.198;27.918;2022-09-09T01:32:55;152145.69;;;19.62;100.00
6599;BME280;3335;43.198;27.918;2022-09-09T01:35:32;152163.31;;;19.70;100.00
6599;BME280;3335;43.198;27.918;2022-09-09T01:38:01;152145.69;;;19.62;100.00
6599;BME280;3335;43.198;27.918;2022-09-09T01:40:28;152003.66;;;19.05;100.00
6599;BME280;3335;43.198;27.918;2022-09-09T01:42:57;152087.81;;;19.39;100.00
6599;BME280;3335;43.198;27.918;2022-09-09T01:45:24;151778.72;;;18.15;100.00
6599;BME280;3335;43.198;27.918;2022-09-09T01:47:52;152099.19;;;19.44;100.00
6599;BME280;3335;43.198;27.918;2022-09-09T01:50:20;152086.56;;;19.39;100.00
6599;BME280;3335;43.198;27.918;2022-09-09T01:52:52;152086.56;;;19.39;100.00
6599;BME280;3335;43.198;27.918;2022-09-09T01:55:27;152101.69;;;19.45;100.00
6599;BME280;3335;43.198;27.918;2022-09-09T01:58:09;152070.25;;;19.32;100.00
6599;BME280;3335;43.198;27.918;2022-09-09T02:00:43;152084.06;;;19.38;100.00
6599;BME280;3335;43.198;27.918;2022-09-09T02:03:20;152025.00;;;19.14;100.00
6599;BME280;3335;43.198;27.918;2022-09-09T02:05:55;152089.06;;;19.40;100.00
6599;BME280;3335;43.198;27.918;2022-09-09T02:08:29;152081.56;;;19.37;100.00
6599;BME280;3335;43.198;27.918;2022-09-09T02:11:03;152076.50;;;19.35;100.00
6599;BME280;3335;43.198;27.918;2022-09-09T02:13:35;152082.81;;;19.37;100.00
6599;BME280;3335;43.198;27.918;2022-09-09T02:16:08;152092.88;;;19.41;100.00
6599;BME280;3335;43.198;27.918;2022-09-09T02:18:40;152074.03;;;19.34;100.00
6599;BME280;3335;43.198;27.918;2022-09-09T02:21:11;152108.00;;;19.47;100.00
6599;BME280;3335;43.198;27.918;2022-09-09T02:23:39;152094.13;;;19.42;100.00
6599;BME280;3335;43.198;27.918;2022-09-09T02:26:09;152101.69;;;19.45;100.00
6599;BME280;3335;43.198;27.918;2022-09-09T02:28:41;152046.34;;;19.22;100.00
6599;BME280;3335;43.198;27.918;2022-09-09T02:31:09;152106.75;;;19.47;100.00
6599;BME280;3335;43.198;27.918;2022-09-09T02:33:39;152119.31;;;19.52;100.00
6599;BME280;3335;43.198;27.918;2022-09-09T02:36:09;152121.84;;;19.53;100.00
6599;BME280;3335;43.198;27.918;2022-09-09T02:38:40;152121.84;;;19.53;100.00
6599;BME280;3335;43.198;27.918;2022-09-09T02:41:07;152123.06;;;19.53;100.00
6599;BME280;3335;43.198;27.918;2022-09-09T02:43:35;152106.75;;;19.47;100.00
6599;BME280;3335;43.198;27.918;2022-09-09T02:46:20;152136.91;;;19.59;100.00
6599;BME280;3335;43.198;27.918;2022-09-09T02:48:55;152124.31;;;19.54;100.00
6599;BME280;3335;43.198;27.918;2022-09-09T02:51:32;152113.00;;;19.49;100.00
6599;BME280;3335;43.198;27.918;2022-09-09T02:54:10;152157.03;;;19.67;100.00
6599;BME280;3335;43.198;27.918;2022-09-09T02:56:41;152141.94;;;19.61;100.00
6599;BME280;3335;43.198;27.918;2022-09-09T02:59:10;152099.19;;;19.44;100.00
6599;BME280;3335;43.198;27.918;2022-09-09T03:01:39;152121.84;;;19.53;100.00
6599;BME280;3335;43.198;27.918;2022-09-09T03:04:06;152128.09;;;19.55;100.00
6599;BME280;3335;43.198;27.918;2022-09-09T03:06:33;152101.69;;;19.45;100.00
6599;BME280;3335;43.198;27.918;2022-09-09T03:09:01;152092.88;;;19.41;100.00
6599;BME280;3335;43.198;27.918;2022-09-09T03:11:28;152014.97;;;19.10;100.00
6599;BME280;3335;43.198;27.918;2022-09-09T03:13:55;152080.28;;;19.36;100.00
6599;BME280;3335;43.198;27.918;2022-09-09T03:16:22;152095.38;;;19.42;100.00
6599;BME280;3335;43.198;27.918;2022-09-09T03:18:50;152072.78;;;19.33;100.00
6599;BME280;3335;43.198;27.918;2022-09-09T03:21:17;152071.50;;;19.33;100.00
6599;BME280;3335;43.198;27.918;2022-09-09T03:23:44;152079.03;;;19.36;100.00
6599;BME280;3335;43.198;27.918;2022-09-09T03:26:11;152060.19;;;19.28;100.00
6599;BME280;3335;43.198;27.918;2022-09-09T03:28:40;152066.44;;;19.31;100.00
6599;BME280;3335;43.198;27.918;2022-09-09T03:31:07;152056.41;;;19.27;100.00
6599;BME280;3335;43.198;27.918;2022-09-09T03:33:36;152061.47;;;19.29;100.00
6599;BME280;3335;43.198;27.918;2022-09-09T03:36:05;152081.56;;;19.37;100.00
6599;BME280;3335;43.198;27.918;2022-09-09T03:38:33;152070.25;;;19.32;100.00
6599;BME280;3335;43.198;27.918;2022-09-09T03:41:00;152033.78;;;19.17;100.00
6599;BME280;3335;43.198;27.918;2022-09-09T03:43:28;151928.22;;;18.75;100.00
6599;BME280;3335;43.198;27.918;2022-09-09T03:45:55;152085.34;;;19.38;100.00
6599;BME280;3335;43.198;27.918;2022-09-09T03:48:24;152013.69;;;19.09;100.00
6599;BME280;3335;43.198;27.918;2022-09-09T03:50:52;152036.31;;;19.18;100.00
6599;BME280;3335;43.198;27.918;2022-09-09T03:53:23;152065.19;;;19.30;100.00
6599;BME280;3335;43.198;27.918;2022-09-09T03:55:52;152051.34;;;19.24;100.00
6599;BME280;3335;43.198;27.918;2022-09-09T03:58:20;152056.41;;;19.27;100.00
6599;BME280;3335;43.198;27.918;2022-09-09T04:01:00;152080.28;;;19.36;100.00
6599;BME280;3335;43.198;27.918;2022-09-09T04:03:28;152066.44;;;19.31;100.00
6599;BME280;3335;43.198;27.918;2022-09-09T04:05:56;152076.50;;;19.35;100.00
6599;BME280;3335;43.198;27.918;2022-09-09T04:08:25;152068.97;;;19.32;100.00
6599;BME280;3335;43.198;27.918;2022-09-09T04:10:53;152116.81;;;19.51;100.00
6599;BME280;3335;43.198;27.918;2022-09-09T04:13:24;152081.56;;;19.37;100.00
6599;BME280;3335;43.198;27.918;2022-09-09T04:15:52;152148.22;;;19.63;100.00
6599;BME280;3335;43.198;27.918;2022-09-09T04:18:20;152131.91;;;19.57;100.00
6599;BME280;3335;43.198;27.918;2022-09-09T04:20:47;152071.50;;;19.33;100.00
6599;BME280;3335;43.198;27.918;2022-09-09T04:23:14;152121.84;;;19.53;100.00
6599;BME280;3335;43.198;27.918;2022-09-09T04:25:45;151965.94;;;18.90;100.00
6599;BME280;3335;43.198;27.918;2022-09-09T04:28:13;152146.94;;;19.63;100.00
6599;BME280;3335;43.198;27.918;2022-09-09T04:30:40;152144.47;;;19.62;100.00
6599;BME280;3335;43.198;27.918;2022-09-09T04:33:07;152116.81;;;19.51;100.00
6599;BME280;3335;43.198;27.918;2022-09-09T04:35:35;152146.94;;;19.63;100.00
6599;BME280;3335;43.198;27.918;2022-09-09T04:38:02;152154.53;;;19.66;100.00
6599;BME280;3335;43.198;27.918;2022-09-09T04:40:29;152139.41;;;19.60;100.00
6599;BME280;3335;43.198;27.918;2022-09-09T04:42:59;152121.84;;;19.53;100.00
6599;BME280;3335;43.198;27.918;2022-09-09T04:45:26;152197.25;;;19.83;100.00
6599;BME280;3335;43.198;27.918;2022-09-09T04:47:53;152201.03;;;19.85;100.00
6599;BME280;3335;43.198;27.918;2022-09-09T04:50:21;152218.63;;;19.92;100.00
6599;BME280;3335;43.198;27.918;2022-09-09T04:52:47;152232.47;;;19.97;100.00
6599;BME280;3335;43.198;27.918;2022-09-09T04:55:14;152260.16;;;20.08;100.00
6599;BME280;3335;43.198;27.918;2022-09-09T04:57:41;152285.31;;;20.19;100.00
6599;BME280;3335;43.198;27.918;2022-09-09T05:00:11;152315.50;;;20.31;100.00
6599;BME280;3335;43.198;27.918;2022-09-09T05:02:39;152339.41;;;20.40;100.00
6599;BME280;3335;43.198;27.918;2022-09-09T05:05:08;152353.25;;;20.46;100.00
6599;BME280;3335;43.198;27.918;2022-09-09T05:07:36;152379.69;;;20.57;100.00
6599;BME280;3335;43.198;27.918;2022-09-09T05:10:04;152401.06;;;20.65;100.00
6599;BME280;3335;43.198;27.918;2022-09-09T05:12:31;152402.31;;;20.66;100.00
6599;BME280;3335;43.198;27.918;2022-09-09T05:14:58;152433.75;;;20.78;100.00
6599;BME280;3335;43.198;27.918;2022-09-09T05:17:26;152451.41;;;20.85;100.00
6599;BME280;3335;43.198;27.918;2022-09-09T05:19:53;152471.50;;;20.93;100.00
6599;BME280;3335;43.198;27.918;2022-09-09T05:22:20;152490.38;;;21.01;100.00
6599;BME280;3335;43.198;27.918;2022-09-09T05:24:48;152511.81;;;21.10;100.00
6599;BME280;3335;43.198;27.918;2022-09-09T05:27:16;152525.66;;;21.15;100.00
6599;BME280;3335;43.198;27.918;2022-09-09T05:29:43;152534.50;;;21.19;100.00
6599;BME280;3335;43.198;27.918;2022-09-09T05:32:10;152396.00;;;20.63;100.00
6599;BME280;3335;43.198;27.918;2022-09-09T05:34:38;152569.72;;;21.33;100.00
6599;BME280;3335;43.198;27.918;2022-09-09T05:37:05;152589.84;;;21.41;100.00
6599;BME280;3335;43.198;27.918;2022-09-09T05:39:33;152587.31;;;21.40;100.00
6599;BME280;3335;43.198;27.918;2022-09-09T05:42:01;152597.38;;;21.44;100.00
6599;BME280;3335;43.198;27.918;2022-09-09T05:44:30;152612.50;;;21.50;100.00
6599;BME280;3335;43.198;27.918;2022-09-09T05:46:57;152618.78;;;21.53;100.00
6599;BME280;3335;43.198;27.918;2022-09-09T05:49:24;152636.44;;;21.60;100.00
6599;BME280;3335;43.198;27.918;2022-09-09T05:51:52;152637.69;;;21.60;100.00
6599;BME280;3335;43.198;27.918;2022-09-09T05:54:19;152630.16;;;21.57;100.00
6599;BME280;3335;43.198;27.918;2022-09-09T05:56:46;152660.34;;;21.69;100.00
6599;BME280;3335;43.198;27.918;2022-09-09T05:59:16;152674.19;;;21.75;100.00
6599;BME280;3335;43.198;27.918;2022-09-09T06:01:43;152695.59;;;21.83;100.00
6599;BME280;3335;43.198;27.918;2022-09-09T06:04:10;152655.28;;;21.67;100.00
6599;BME280;3335;43.198;27.918;2022-09-09T06:06:38;152730.91;;;21.98;100.00
6599;BME280;3335;43.198;27.918;2022-09-09T06:09:07;152742.22;;;22.02;100.00
6599;BME280;3335;43.198;27.918;2022-09-09T06:11:37;152786.28;;;22.20;100.00
6599;BME280;3335;43.198;27.918;2022-09-09T06:14:04;152811.47;;;22.30;100.00
6599;BME280;3335;43.198;27.918;2022-09-09T06:16:32;152797.63;;;22.24;100.00
6599;BME280;3335;43.198;27.918;2022-09-09T06:19:00;152826.59;;;22.36;100.00
6599;BME280;3335;43.198;27.918;2022-09-09T06:21:29;152870.66;;;22.54;100.00
6599;BME280;3335;43.198;27.918;2022-09-09T06:23:58;152861.88;;;22.50;100.00
6599;BME280;3335;43.198;27.918;2022-09-09T06:26:27;152909.72;;;22.69;100.00
6599;BME280;3335;43.198;27.918;2022-09-09T06:28:56;152932.47;;;22.79;100.00
6599;BME280;3335;43.198;27.918;2022-09-09T06:31:25;152951.34;;;22.86;100.00
6599;BME280;3335;43.198;27.918;2022-09-09T06:33:53;152960.19;;;22.90;100.00
6599;BME280;3335;43.198;27.918;2022-09-09T06:36:22;152977.81;;;22.97;100.00
6599;BME280;3335;43.198;27.918;2022-09-09T06:38:49;152995.47;;;23.04;100.00
6599;BME280;3335;43.198;27.918;2022-09-09T06:41:18;153018.13;;;23.13;100.00
6599;BME280;3335;43.198;27.918;2022-09-09T06:43:46;153028.22;;;23.17;100.00
6599;BME280;3335;43.198;27.918;2022-09-09T06:46:14;153060.97;;;23.30;100.00
6599;BME280;3335;43.198;27.918;2022-09-09T06:48:43;153076.09;;;23.36;100.00
6599;BME280;3335;43.198;27.918;2022-09-09T06:51:12;153086.16;;;23.40;100.00
6599;BME280;3335;43.198;27.918;2022-09-09T06:53:41;153039.53;;;23.22;100.00
6599;BME280;3335;43.198;27.918;2022-09-09T06:56:20;153091.22;;;23.42;100.00
6599;BME280;3335;43.198;27.918;2022-09-09T06:58:50;153129.03;;;23.58;100.00
6599;BME280;3335;43.198;27.918;2022-09-09T07:01:19;153137.91;;;23.61;100.00
6599;BME280;3335;43.198;27.918;2022-09-09T07:03:47;153159.31;;;23.70;100.00
6599;BME280;3335;43.198;27.918;2022-09-09T07:06:17;153171.94;;;23.75;100.00
6599;BME280;3335;43.198;27.918;2022-09-09T07:08:48;153149.25;;;23.66;100.00
6599;BME280;3335;43.198;27.918;2022-09-09T07:11:15;153178.22;;;23.77;100.00
6599;BME280;3335;43.198;27.918;2022-09-09T07:13:42;153189.56;;;23.82;100.00
6599;BME280;3335;43.198;27.918;2022-09-09T07:16:12;153199.63;;;23.86;100.00
6599;BME280;3335;43.198;27.918;2022-09-09T07:18:40;153224.84;;;23.96;100.00
6599;BME280;3335;43.198;27.918;2022-09-09T07:21:09;153234.94;;;24.00;100.00
6599;BME280;3335;43.198;27.918;2022-09-09T07:23:37;153250.06;;;24.06;100.00
6599;BME280;3335;43.198;27.918;2022-09-09T07:26:08;153260.16;;;24.10;100.00
6599;BME280;3335;43.198;27.918;2022-09-09T07:28:35;153270.22;;;24.14;100.00
6599;BME280;3335;43.198;27.918;2022-09-09T07:31:03;153247.53;;;24.05;100.00
6599;BME280;3335;43.198;27.918;2022-09-09T07:33:32;153304.38;;;24.28;100.00
6599;BME280;3335;43.198;27.918;2022-09-09T07:36:05;153313.19;;;24.31;100.00
6599;BME280;3335;43.198;27.918;2022-09-09T07:38:36;153306.84;;;24.29;100.00
6599;BME280;3335;43.198;27.918;2022-09-09T07:41:05;153328.31;;;24.37;100.00
6599;BME280;3335;43.198;27.918;2022-09-09T07:43:34;153361.09;;;24.51;100.00
6599;BME280;3335;43.198;27.918;2022-09-09T07:46:01;153361.09;;;24.51;100.00
6599;BME280;3335;43.198;27.918;2022-09-09T07:48:28;153366.13;;;24.53;100.00
6599;BME280;3335;43.198;27.918;2022-09-09T07:51:06;153407.75;;;24.69;100.00
6599;BME280;3335;43.198;27.918;2022-09-09T07:53:33;153373.72;;;24.56;100.00
6599;BME280;3335;43.198;27.918;2022-09-09T07:56:06;153397.69;;;24.65;100.00
6599;BME280;3335;43.198;27.918;2022-09-09T07:58:35;153448.09;;;24.85;100.00
6599;BME280;3335;43.198;27.918;2022-09-09T08:01:07;153454.47;;;24.88;100.00
6599;BME280;3335;43.198;27.918;2022-09-09T08:03:35;153419.09;;;24.74;100.00
6599;BME280;3335;43.198;27.918;2022-09-09T08:06:04;153387.59;;;24.61;100.00
6599;BME280;3335;43.198;27.918;2022-09-09T08:08:31;153434.25;;;24.80;100.00
6599;BME280;3335;43.198;27.918;2022-09-09T08:11:04;153439.28;;;24.82;100.00
6599;BME280;3335;43.198;27.918;2022-09-09T08:13:33;153477.19;;;24.97;100.00
6599;BME280;3335;43.198;27.918;2022-09-09T08:16:05;153504.94;;;25.08;100.00
6599;BME280;3335;43.198;27.918;2022-09-09T08:18:32;153494.81;;;25.04;100.00
6599;BME280;3335;43.198;27.918;2022-09-09T08:21:10;153522.56;;;25.15;100.00
6599;BME280;3335;43.198;27.918;2022-09-09T08:23:39;153555.38;;;25.28;100.00
6599;BME280;3335;43.198;27.918;2022-09-09T08:26:09;153580.63;;;25.39;100.00
6599;BME280;3335;43.198;27.918;2022-09-09T08:28:36;153603.31;;;25.48;100.00
6599;BME280;3335;43.198;27.918;2022-09-09T08:31:08;153623.59;;;25.56;100.00
6599;BME280;3335;43.198;27.918;2022-09-09T08:33:35;153634.94;;;25.60;100.00
6599;BME280;3335;43.198;27.918;2022-09-09T08:36:06;153617.19;;;25.53;100.00
6599;BME280;3335;43.198;27.918;2022-09-09T08:38:35;153661.41;;;25.71;100.00
6599;BME280;3335;43.198;27.918;2022-09-09T08:44:07;153666.47;;;25.73;100.00
6599;BME280;3335;43.198;27.918;2022-09-09T08:46:42;153666.47;;;25.73;100.00
6599;BME280;3335;43.198;27.918;2022-09-09T08:49:20;153684.16;;;25.80;100.00
6599;BME280;3335;43.198;27.918;2022-09-09T08:51:54;153669.00;;;25.74;100.00
6599;BME280;3335;43.198;27.918;2022-09-09T08:54:23;153684.16;;;25.80;100.00
6599;BME280;3335;43.198;27.918;2022-09-09T08:56:52;153706.88;;;25.89;100.00
6599;BME280;3335;43.198;27.918;2022-09-09T08:59:19;153733.34;;;26.00;100.00
6599;BME280;3335;43.198;27.918;2022-09-09T09:01:56;153749.78;;;26.06;100.00
6599;BME280;3335;43.198;27.918;2022-09-09T09:04:45;153759.88;;;26.10;100.00
6599;BME280;3335;43.198;27.918;2022-09-09T09:07:24;153780.06;;;26.19;100.00
6599;BME280;3335;43.198;27.918;2022-09-09T09:10:02;153804.09;;;26.28;100.00
6599;BME280;3335;43.198;27.918;2022-09-09T09:12:35;153811.69;;;26.31;100.00
6599;BME280;3335;43.198;27.918;2022-09-09T09:15:11;153809.16;;;26.30;100.00
6599;BME280;3335;43.198;27.918;2022-09-09T09:17:42;153823.06;;;26.36;100.00
6599;BME280;3335;43.198;27.918;2022-09-09T09:20:12;153848.31;;;26.46;100.00
6599;BME280;3335;43.198;27.918;2022-09-09T09:22:47;153782.59;;;26.20;100.00
6599;BME280;3335;43.198;27.918;2022-09-09T09:25:18;153858.41;;;26.50;100.00
6599;BME280;3335;43.198;27.918;2022-09-09T09:27:51;153859.66;;;26.50;100.00
6599;BME280;3335;43.198;27.918;2022-09-09T09:30:21;153845.78;;;26.45;100.00
6599;BME280;3335;43.198;27.918;2022-09-09T09:32:52;153778.84;;;26.18;100.00
6599;BME280;3335;43.198;27.918;2022-09-09T09:35:20;153888.69;;;26.62;100.00
6599;BME280;3335;43.198;27.918;2022-09-09T09:37:48;153900.03;;;26.67;100.00
6599;BME280;3335;43.198;27.918;2022-09-09T09:40:18;153906.38;;;26.69;100.00
6599;BME280;3335;43.198;27.918;2022-09-09T09:42:51;153906.38;;;26.69;100.00
6599;BME280;3335;43.198;27.918;2022-09-09T09:45:27;153883.66;;;26.60;100.00
6599;BME280;3335;43.198;27.918;2022-09-09T09:47:59;153891.22;;;26.63;100.00
6599;BME280;3335;43.198;27.918;2022-09-09T09:50:27;153921.53;;;26.75;100.00
6599;BME280;3335;43.198;27.918;2022-09-09T09:52:57;153919.03;;;26.74;100.00
6599;BME280;3335;43.198;27.918;2022-09-09T09:55:25;153628.63;;;25.58;100.00
6599;BME280;3335;43.198;27.918;2022-09-09T09:57:53;153967.06;;;26.93;100.00
6599;BME280;3335;43.198;27.918;2022-09-09T10:00:22;153969.53;;;26.94;100.00
6599;BME280;3335;43.198;27.918;2022-09-09T10:02:49;154020.06;;;27.15;100.00
6599;BME280;3335;43.198;27.918;2022-09-09T10:05:20;154037.78;;;27.22;100.00
6599;BME280;3335;43.198;27.918;2022-09-09T10:08:02;154018.81;;;27.14;100.00
6599;BME280;3335;43.198;27.918;2022-09-09T10:10:38;154049.13;;;27.26;100.00
6599;BME280;3335;43.198;27.918;2022-09-09T10:13:12;154057.97;;;27.30;100.00
6599;BME280;3335;43.198;27.918;2022-09-09T10:15:50;154085.78;;;27.41;100.00
6599;BME280;3335;43.198;27.918;2022-09-09T10:18:34;154114.84;;;27.53;100.00
6599;BME280;3335;43.198;27.918;2022-09-09T10:21:08;154084.50;;;27.40;100.00
6599;BME280;3335;43.198;27.918;2022-09-09T10:23:57;154111.09;;;27.51;100.00
6599;BME280;3335;43.198;27.918;2022-09-09T10:26:38;154106.03;;;27.49;100.00
6599;BME280;3335;43.198;27.918;2022-09-09T10:29:31;154162.88;;;27.72;100.00
6599;BME280;3335;43.198;27.918;2022-09-09T10:32:09;154169.22;;;27.74;100.00
6599;BME280;3335;43.198;27.918;2022-09-09T10:34:54;154196.97;;;27.85;100.00
6599;BME280;3335;43.198;27.918;2022-09-09T10:37:34;154171.69;;;27.75;100.00
6599;BME280;3335;43.198;27.918;2022-09-09T10:40:19;154132.56;;;27.60;100.00
6599;BME280;3335;43.198;27.918;2022-09-09T10:42:50;154176.78;;;27.77;100.00
6599;BME280;3335;43.198;27.918;2022-09-09T10:45:18;154194.50;;;27.84;100.00
6599;BME280;3335;43.198;27.918;2022-09-09T10:48:16;154236.16;;;28.01;100.00
6599;BME280;3335;43.198;27.918;2022-09-09T10:50:51;154237.44;;;28.02;100.00
6599;BME280;3335;43.198;27.918;2022-09-09T10:53:27;154190.69;;;27.83;100.00
6599;BME280;3335;43.198;27.918;2022-09-09T10:56:06;154181.84;;;27.79;100.00
6599;BME280;3335;43.198;27.918;2022-09-09T10:58:39;154196.97;;;27.85;100.00
6599;BME280;3335;43.198;27.918;2022-09-09T11:01:15;154210.88;;;27.91;100.00
6599;BME280;3335;43.198;27.918;2022-09-09T11:03:47;154191.94;;;27.83;100.00
6599;BME280;3335;43.198;27.918;2022-09-09T11:06:19;154218.44;;;27.94;100.00
6599;BME280;3335;43.198;27.918;2022-09-09T11:08:48;154272.88;;;28.16;100.00
6599;BME280;3335;43.198;27.918;2022-09-09T11:11:19;154252.59;;;28.08;100.00
6599;BME280;3335;43.198;27.918;2022-09-09T11:13:53;154267.78;;;28.14;100.00
6599;BME280;3335;43.198;27.918;2022-09-09T11:16:27;154322.16;;;28.36;100.00
6599;BME280;3335;43.198;27.918;2022-09-09T11:18:59;154384.09;;;28.60;100.00
6599;BME280;3335;43.198;27.918;2022-09-09T11:21:29;154386.59;;;28.61;100.00
6599;BME280;3335;43.198;27.918;2022-09-09T11:24:01;154122.47;;;27.56;100.00
6599;BME280;3335;43.198;27.918;2022-09-09T11:26:35;154252.59;;;28.08;100.00
6599;BME280;3335;43.198;27.918;2022-09-09T11:29:29;154227.34;;;27.98;100.00
6599;BME280;3335;43.198;27.918;2022-09-09T11:32:12;154236.16;;;28.01;100.00
6599;BME280;3335;43.198;27.918;2022-09-09T11:34:52;154212.16;;;27.92;100.00
6599;BME280;3335;43.198;27.918;2022-09-09T11:37:46;154184.34;;;27.80;100.00
6599;BME280;3335;43.198;27.918;2022-09-09T11:40:21;154169.22;;;27.74;100.00
6599;BME280;3335;43.198;27.918;2022-09-09T11:43:03;154121.19;;;27.55;100.00
6599;BME280;3335;43.198;27.918;2022-09-09T11:45:32;154154.03;;;27.68;100.00
6599;BME280;3335;43.198;27.918;2022-09-09T11:48:02;154123.69;;;27.56;100.00
6599;BME280;3335;43.198;27.918;2022-09-09T11:50:32;154090.81;;;27.43;100.00
6599;BME280;3335;43.198;27.918;2022-09-09T11:53:06;154088.28;;;27.42;100.00
6599;BME280;3335;43.198;27.918;2022-09-09T11:55:42;154090.81;;;27.43;100.00
6599;BME280;3335;43.198;27.918;2022-09-09T11:58:17;154097.16;;;27.46;100.00
6599;BME280;3335;43.198;27.918;2022-09-09T12:00:47;154087.03;;;27.41;100.00
6599;BME280;3335;43.198;27.918;2022-09-09T12:03:41;154090.81;;;27.43;100.00
6599;BME280;3335;43.198;27.918;2022-09-09T12:06:12;154087.03;;;27.41;100.00
6599;BME280;3335;43.198;27.918;2022-09-09T12:08:44;154098.41;;;27.46;100.00
6599;BME280;3335;43.198;27.918;2022-09-09T12:11:11;154089.53;;;27.42;100.00
6599;BME280;3335;43.198;27.918;2022-09-09T12:13:40;154161.59;;;27.71;100.00
6599;BME280;3335;43.198;27.918;2022-09-09T12:16:32;154238.69;;;28.02;100.00
6599;BME280;3335;43.198;27.918;2022-09-09T12:19:12;154232.34;;;28.00;100.00
6599;BME280;3335;43.198;27.918;2022-09-09T12:21:45;154270.31;;;28.15;100.00
6599;BME280;3335;43.198;27.918;2022-09-09T12:24:19;154242.47;;;28.04;100.00
6599;BME280;3335;43.198;27.918;2022-09-09T12:26:54;154217.22;;;27.94;100.00
6599;BME280;3335;43.198;27.918;2022-09-09T12:29:29;154148.97;;;27.66;100.00
6599;BME280;3335;43.198;27.918;2022-09-09T12:32:05;154154.03;;;27.68;100.00
6599;BME280;3335;43.198;27.918;2022-09-09T12:34:38;154137.59;;;27.62;100.00
6599;BME280;3335;43.198;27.918;2022-09-09T12:37:13;154143.94;;;27.64;100.00
6599;BME280;3335;43.198;27.918;2022-09-09T12:39:45;154136.31;;;27.61;100.00
6599;BME280;3335;43.198;27.918;2022-09-09T12:42:20;154140.13;;;27.63;100.00
6599;BME280;3335;43.198;27.918;2022-09-09T12:44:56;154224.78;;;27.97;100.00
6599;BME280;3335;43.198;27.918;2022-09-09T12:47:27;154143.94;;;27.64;100.00
6599;BME280;3335;43.198;27.918;2022-09-09T12:49:55;154269.06;;;28.14;100.00
6599;BME280;3335;43.198;27.918;2022-09-09T12:52:27;154267.78;;;28.14;100.00
6599;BME280;3335;43.198;27.918;2022-09-09T12:54:57;154222.25;;;27.96;100.00
6599;BME280;3335;43.198;27.918;2022-09-09T12:57:26;154155.31;;;27.69;100.00
6599;BME280;3335;43.198;27.918;2022-09-09T13:00:07;154099.69;;;27.47;100.00
6599;BME280;3335;43.198;27.918;2022-09-09T13:02:46;154137.59;;;27.62;100.00
6599;BME280;3335;43.198;27.918;2022-09-09T13:05:15;154159.06;;;27.70;100.00
6599;BME280;3335;43.198;27.918;2022-09-09T13:07:43;154224.78;;;27.97;100.00
6599;BME280;3335;43.198;27.918;2022-09-09T13:10:11;154178.03;;;27.78;100.00
6599;BME280;3335;43.198;27.918;2022-09-09T13:12:39;154162.88;;;27.72;100.00
6599;BME280;3335;43.198;27.918;2022-09-09T13:15:16;154156.56;;;27.69;100.00
6599;BME280;3335;43.198;27.918;2022-09-09T13:17:51;154154.03;;;27.68;100.00